sensor_id;sensor_type;location;lat;lon;timestamp;temperature;humidity
2967;DHT22;1493;51.496;7.210;2022-07-01T00:01:13;17.00;99.90
2967;DHT22;1493;51.496;7.210;2022-07-01T00:03:39;16.90;99.90
2967;DHT22;1493;51.496;7.210;2022-07-01T00:06:14;16.90;99.90
2967;DHT22;1493;51.496;7.210;2022-07-01T00:08:41;16.90;99.90
2967;DHT22;1493;51.496;7.210;2022-07-01T00:11:09;16.90;99.90
2967;DHT22;1493;51.496;7.210;2022-07-01T00:13:38;16.90;99.90
2967;DHT22;1493;51.496;7.210;2022-07-01T00:16:05;16.90;99.90
2967;DHT22;1493;51.496;7.210;2022-07-01T00:18:32;16.90;99.90
2967;DHT22;1493;51.496;7.210;2022-07-01T00:20:59;16.80;99.90
2967;DHT22;1493;51.496;7.210;2022-07-01T00:23:26;16.80;99.90
2967;DHT22;1493;51.496;7.210;2022-07-01T00:25:53;16.80;99.90
2967;DHT22;1493;51.496;7.210;2022-07-01T00:28:21;16.90;99.90
2967;DHT22;1493;51.496;7.210;2022-07-01T00:30:48;16.90;99.90
2967;DHT22;1493;51.496;7.210;2022-07-01T00:33:15;16.80;99.90
2967;DHT22;1493;51.496;7.210;2022-07-01T00:35:42;16.80;99.90
2967;DHT22;1493;51.496;7.210;2022-07-01T00:38:09;16.90;99.90
2967;DHT22;1493;51.496;7.210;2022-07-01T00:40:36;16.90;99.90
2967;DHT22;1493;51.496;7.210;2022-07-01T00:43:03;16.90;99.90
2967;DHT22;1493;51.496;7.210;2022-07-01T00:45:32;16.90;99.90
2967;DHT22;1493;51.496;7.210;2022-07-01T00:47:58;16.80;99.90
2967;DHT22;1493;51.496;7.210;2022-07-01T00:50:26;16.70;99.90
2967;DHT22;1493;51.496;7.210;2022-07-01T00:52:53;16.80;99.90
2967;DHT22;1493;51.496;7.210;2022-07-01T00:55:20;16.80;99.90
2967;DHT22;1493;51.496;7.210;2022-07-01T00:57:47;16.80;99.90
2967;DHT22;1493;51.496;7.210;2022-07-01T01:00:16;16.80;99.90
2967;DHT22;1493;51.496;7.210;2022-07-01T01:02:45;16.70;99.90
2967;DHT22;1493;51.496;7.210;2022-07-01T01:05:12;16.70;99.90
2967;DHT22;1493;51.496;7.210;2022-07-01T01:07:41;16.70;99.90
2967;DHT22;1493;51.496;7.210;2022-07-01T01:10:09;16.70;99.90
2967;DHT22;1493;51.496;7.210;2022-07-01T01:12:36;16.60;99.90
2967;DHT22;1493;51.496;7.210;2022-07-01T01:15:04;16.70;99.90
2967;DHT22;1493;51.496;7.210;2022-07-01T01:17:31;16.70;99.90
2967;DHT22;1493;51.496;7.210;2022-07-01T01:19:59;16.60;99.90
2967;DHT22;1493;51.496;7.210;2022-07-01T01:22:28;16.70;99.90
2967;DHT22;1493;51.496;7.210;2022-07-01T01:24:54;16.70;99.90
2967;DHT22;1493;51.496;7.210;2022-07-01T01:27:24;16.60;99.90
2967;DHT22;1493;51.496;7.210;2022-07-01T01:29:51;16.60;99.90
2967;DHT22;1493;51.496;7.210;2022-07-01T01:32:18;16.60;99.90
2967;DHT22;1493;51.496;7.210;2022-07-01T01:34:44;16.60;99.90
2967;DHT22;1493;51.496;7.210;2022-07-01T01:37:11;16.60;99.90
2967;DHT22;1493;51.496;7.210;2022-07-01T01:39:39;16.60;99.90
2967;DHT22;1493;51.496;7.210;2022-07-01T01:42:07;16.70;99.90
2967;DHT22;1493;51.496;7.210;2022-07-01T01:44:34;16.70;99.90
2967;DHT22;1493;51.496;7.210;2022-07-01T01:47:03;16.70;99.90
2967;DHT22;1493;51.496;7.210;2022-07-01T01:49:30;16.70;99.90
2967;DHT22;1493;51.496;7.210;2022-07-01T01:51:57;16.70;99.90
2967;DHT22;1493;51.496;7.210;2022-07-01T01:54:25;16.80;99.90
2967;DHT22;1493;51.496;7.210;2022-07-01T01:56:53;16.70;99.90
2967;DHT22;1493;51.496;7.210;2022-07-01T01:59:20;16.70;99.90
2967;DHT22;1493;51.496;7.210;2022-07-01T02:01:47;16.70;99.90
2967;DHT22;1493;51.496;7.210;2022-07-01T02:04:14;16.70;99.90
2967;DHT22;1493;51.496;7.210;2022-07-01T02:06:41;16.70;99.90
2967;DHT22;1493;51.496;7.210;2022-07-01T02:09:08;16.70;99.90
2967;DHT22;1493;51.496;7.210;2022-07-01T02:11:35;16.70;99.90
2967;DHT22;1493;51.496;7.210;2022-07-01T02:14:03;16.70;99.90
2967;DHT22;1493;51.496;7.210;2022-07-01T02:16:30;16.70;99.90
2967;DHT22;1493;51.496;7.210;2022-07-01T02:18:57;16.70;99.90
2967;DHT22;1493;51.496;7.210;2022-07-01T02:21:24;16.70;99.90
2967;DHT22;1493;51.496;7.210;2022-07-01T02:23:51;16.60;99.90
2967;DHT22;1493;51.496;7.210;2022-07-01T02:26:19;16.70;99.90
2967;DHT22;1493;51.496;7.210;2022-07-01T02:28:46;16.70;99.90
2967;DHT22;1493;51.496;7.210;2022-07-01T02:31:14;16.70;99.90
2967;DHT22;1493;51.496;7.210;2022-07-01T02:33:41;16.70;99.90
2967;DHT22;1493;51.496;7.210;2022-07-01T02:36:08;16.70;99.90
2967;DHT22;1493;51.496;7.210;2022-07-01T02:38:34;16.70;99.90
2967;DHT22;1493;51.496;7.210;2022-07-01T02:41:01;16.70;99.90
2967;DHT22;1493;51.496;7.210;2022-07-01T02:43:28;16.70;99.90
2967;DHT22;1493;51.496;7.210;2022-07-01T02:45:56;16.70;99.90
2967;DHT22;1493;51.496;7.210;2022-07-01T02:48:24;16.60;99.90
2967;DHT22;1493;51.496;7.210;2022-07-01T02:50:51;16.60;99.90
2967;DHT22;1493;51.496;7.210;2022-07-01T02:53:18;16.50;99.90
2967;DHT22;1493;51.496;7.210;2022-07-01T02:55:45;16.50;99.90
2967;DHT22;1493;51.496;7.210;2022-07-01T02:58:11;16.50;99.90
2967;DHT22;1493;51.496;7.210;2022-07-01T03:00:38;16.50;99.90
2967;DHT22;1493;51.496;7.210;2022-07-01T03:03:05;16.50;99.90
2967;DHT22;1493;51.496;7.210;2022-07-01T03:05:33;16.50;99.90
2967;DHT22;1493;51.496;7.210;2022-07-01T03:08:00;16.40;99.90
2967;DHT22;1493;51.496;7.210;2022-07-01T03:10:27;16.30;99.90
2967;DHT22;1493;51.496;7.210;2022-07-01T03:12:54;16.30;99.90
2967;DHT22;1493;51.496;7.210;2022-07-01T03:15:21;16.20;99.90
2967;DHT22;1493;51.496;7.210;2022-07-01T03:17:48;16.30;99.90
2967;DHT22;1493;51.496;7.210;2022-07-01T03:20:17;16.60;99.90
2967;DHT22;1493;51.496;7.210;2022-07-01T03:22:46;16.70;99.90
2967;DHT22;1493;51.496;7.210;2022-07-01T03:25:15;16.80;99.90
2967;DHT22;1493;51.496;7.210;2022-07-01T03:27:48;16.80;99.90
2967;DHT22;1493;51.496;7.210;2022-07-01T03:30:15;16.90;99.90
2967;DHT22;1493;51.496;7.210;2022-07-01T03:32:43;16.80;99.90
2967;DHT22;1493;51.496;7.210;2022-07-01T03:35:10;16.80;99.90
2967;DHT22;1493;51.496;7.210;2022-07-01T03:38:08;16.70;99.90
2967;DHT22;1493;51.496;7.210;2022-07-01T03:40:35;16.70;99.90
2967;DHT22;1493;51.496;7.210;2022-07-01T03:43:02;16.60;99.90
2967;DHT22;1493;51.496;7.210;2022-07-01T03:45:29;16.60;99.90
2967;DHT22;1493;51.496;7.210;2022-07-01T03:47:57;16.50;99.90
2967;DHT22;1493;51.496;7.210;2022-07-01T03:50:24;16.40;99.90
2967;DHT22;1493;51.496;7.210;2022-07-01T03:52:52;16.40;99.90
2967;DHT22;1493;51.496;7.210;2022-07-01T03:55:42;16.30;99.90
2967;DHT22;1493;51.496;7.210;2022-07-01T03:58:08;16.30;99.90
2967;DHT22;1493;51.496;7.210;2022-07-01T04:00:36;16.30;99.90
2967;DHT22;1493;51.496;7.210;2022-07-01T04:03:03;16.30;99.90
2967;DHT22;1493;51.496;7.210;2022-07-01T04:05:32;16.30;99.90
2967;DHT22;1493;51.496;7.210;2022-07-01T04:07:59;16.40;99.90
2967;DHT22;1493;51.496;7.210;2022-07-01T04:10:26;16.40;99.90
2967;DHT22;1493;51.496;7.210;2022-07-01T04:12:55;16.50;99.90
2967;DHT22;1493;51.496;7.210;2022-07-01T04:15:22;16.50;99.90
2967;DHT22;1493;51.496;7.210;2022-07-01T04:17:49;16.50;99.90
2967;DHT22;1493;51.496;7.210;2022-07-01T04:20:16;16.50;99.90
2967;DHT22;1493;51.496;7.210;2022-07-01T04:22:43;16.50;99.90
2967;DHT22;1493;51.496;7.210;2022-07-01T04:25:09;16.50;99.90
2967;DHT22;1493;51.496;7.210;2022-07-01T04:27:36;16.50;99.90
2967;DHT22;1493;51.496;7.210;2022-07-01T04:30:05;16.50;99.90
2967;DHT22;1493;51.496;7.210;2022-07-01T04:32:32;16.50;99.90
2967;DHT22;1493;51.496;7.210;2022-07-01T04:34:59;16.40;99.90
2967;DHT22;1493;51.496;7.210;2022-07-01T04:37:26;16.50;99.90
2967;DHT22;1493;51.496;7.210;2022-07-01T04:39:53;16.50;99.90
2967;DHT22;1493;51.496;7.210;2022-07-01T04:42:19;16.50;99.90
2967;DHT22;1493;51.496;7.210;2022-07-01T04:44:47;16.50;99.90
2967;DHT22;1493;51.496;7.210;2022-07-01T04:47:15;16.40;99.90
2967;DHT22;1493;51.496;7.210;2022-07-01T04:49:42;16.50;99.90
2967;DHT22;1493;51.496;7.210;2022-07-01T04:52:09;16.50;99.90
2967;DHT22;1493;51.496;7.210;2022-07-01T04:54:36;16.40;99.90
2967;DHT22;1493;51.496;7.210;2022-07-01T04:57:03;16.50;99.90
2967;DHT22;1493;51.496;7.210;2022-07-01T04:59:30;16.50;99.90
2967;DHT22;1493;51.496;7.210;2022-07-01T05:01:57;16.50;99.90
2967;DHT22;1493;51.496;7.210;2022-07-01T05:04:26;16.60;99.90
2967;DHT22;1493;51.496;7.210;2022-07-01T05:06:53;16.60;99.90
2967;DHT22;1493;51.496;7.210;2022-07-01T05:09:30;16.60;99.90
2967;DHT22;1493;51.496;7.210;2022-07-01T05:11:56;16.60;99.90
2967;DHT22;1493;51.496;7.210;2022-07-01T05:14:23;16.60;99.90
2967;DHT22;1493;51.496;7.210;2022-07-01T05:16:50;16.50;99.90
2967;DHT22;1493;51.496;7.210;2022-07-01T05:19:20;16.50;99.90
2967;DHT22;1493;51.496;7.210;2022-07-01T05:22:05;16.50;99.90
2967;DHT22;1493;51.496;7.210;2022-07-01T05:24:32;16.60;99.90
2967;DHT22;1493;51.496;7.210;2022-07-01T05:27:03;16.50;99.90
2967;DHT22;1493;51.496;7.210;2022-07-01T05:29:30;16.50;99.90
2967;DHT22;1493;51.496;7.210;2022-07-01T05:31:57;16.60;99.90
2967;DHT22;1493;51.496;7.210;2022-07-01T05:34:24;16.50;99.90
2967;DHT22;1493;51.496;7.210;2022-07-01T05:36:51;16.60;99.90
2967;DHT22;1493;51.496;7.210;2022-07-01T05:39:19;16.70;99.90
2967;DHT22;1493;51.496;7.210;2022-07-01T05:41:46;16.70;99.90
2967;DHT22;1493;51.496;7.210;2022-07-01T05:44:13;16.70;99.90
2967;DHT22;1493;51.496;7.210;2022-07-01T05:46:40;16.80;99.90
2967;DHT22;1493;51.496;7.210;2022-07-01T05:49:07;16.80;99.90
2967;DHT22;1493;51.496;7.210;2022-07-01T05:51:34;16.80;99.90
2967;DHT22;1493;51.496;7.210;2022-07-01T05:54:00;16.80;99.90
2967;DHT22;1493;51.496;7.210;2022-07-01T05:56:29;16.80;99.90
2967;DHT22;1493;51.496;7.210;2022-07-01T05:58:55;16.80;99.90
2967;DHT22;1493;51.496;7.210;2022-07-01T06:01:22;16.80;99.90
2967;DHT22;1493;51.496;7.210;2022-07-01T06:03:49;16.80;99.90
2967;DHT22;1493;51.496;7.210;2022-07-01T06:06:16;16.90;99.90
2967;DHT22;1493;51.496;7.210;2022-07-01T06:08:44;16.90;99.90
2967;DHT22;1493;51.496;7.210;2022-07-01T06:11:11;16.90;99.90
2967;DHT22;1493;51.496;7.210;2022-07-01T06:13:39;16.90;99.90
2967;DHT22;1493;51.496;7.210;2022-07-01T06:16:06;17.00;99.90
2967;DHT22;1493;51.496;7.210;2022-07-01T06:18:33;17.00;99.90
2967;DHT22;1493;51.496;7.210;2022-07-01T06:21:00;17.10;99.90
2967;DHT22;1493;51.496;7.210;2022-07-01T06:23:27;17.10;99.90
2967;DHT22;1493;51.496;7.210;2022-07-01T06:25:54;17.20;99.90
2967;DHT22;1493;51.496;7.210;2022-07-01T06:28:21;17.20;99.90
2967;DHT22;1493;51.496;7.210;2022-07-01T06:30:49;17.20;99.90
2967;DHT22;1493;51.496;7.210;2022-07-01T06:33:20;17.30;99.90
2967;DHT22;1493;51.496;7.210;2022-07-01T06:35:46;17.20;99.90
2967;DHT22;1493;51.496;7.210;2022-07-01T06:38:14;17.30;99.90
2967;DHT22;1493;51.496;7.210;2022-07-01T06:40:41;17.30;99.90
2967;DHT22;1493;51.496;7.210;2022-07-01T06:43:07;17.20;99.90
2967;DHT22;1493;51.496;7.210;2022-07-01T06:45:34;17.30;99.90
2967;DHT22;1493;51.496;7.210;2022-07-01T06:48:03;17.30;99.90
2967;DHT22;1493;51.496;7.210;2022-07-01T06:50:30;17.20;99.90
2967;DHT22;1493;51.496;7.210;2022-07-01T06:52:57;17.40;99.90
2967;DHT22;1493;51.496;7.210;2022-07-01T06:55:24;17.60;99.90
2967;DHT22;1493;51.496;7.210;2022-07-01T06:57:51;17.90;99.90
2967;DHT22;1493;51.496;7.210;2022-07-01T07:00:18;18.20;99.90
2967;DHT22;1493;51.496;7.210;2022-07-01T07:02:45;18.40;99.90
2967;DHT22;1493;51.496;7.210;2022-07-01T07:05:13;18.50;99.90
2967;DHT22;1493;51.496;7.210;2022-07-01T07:07:40;18.40;99.90
2967;DHT22;1493;51.496;7.210;2022-07-01T07:10:08;18.40;99.90
2967;DHT22;1493;51.496;7.210;2022-07-01T07:12:35;18.40;99.90
2967;DHT22;1493;51.496;7.210;2022-07-01T07:15:02;18.40;99.90
2967;DHT22;1493;51.496;7.210;2022-07-01T07:17:29;18.20;99.90
2967;DHT22;1493;51.496;7.210;2022-07-01T07:19:56;18.20;99.90
2967;DHT22;1493;51.496;7.210;2022-07-01T07:22:24;18.10;99.90
2967;DHT22;1493;51.496;7.210;2022-07-01T07:24:51;18.10;99.90
2967;DHT22;1493;51.496;7.210;2022-07-01T07:27:19;18.30;99.90
2967;DHT22;1493;51.496;7.210;2022-07-01T07:29:46;18.20;99.90
2967;DHT22;1493;51.496;7.210;2022-07-01T07:32:13;18.20;99.90
2967;DHT22;1493;51.496;7.210;2022-07-01T07:34:40;18.30;99.90
2967;DHT22;1493;51.496;7.210;2022-07-01T07:37:07;18.50;99.90
2967;DHT22;1493;51.496;7.210;2022-07-01T07:39:35;18.80;99.90
2967;DHT22;1493;51.496;7.210;2022-07-01T07:42:02;19.00;99.90
2967;DHT22;1493;51.496;7.210;2022-07-01T07:44:29;19.20;99.90
2967;DHT22;1493;51.496;7.210;2022-07-01T07:46:56;19.50;99.90
2967;DHT22;1493;51.496;7.210;2022-07-01T07:49:25;19.60;99.90
2967;DHT22;1493;51.496;7.210;2022-07-01T07:51:52;19.50;99.90
2967;DHT22;1493;51.496;7.210;2022-07-01T07:54:19;19.30;99.90
2967;DHT22;1493;51.496;7.210;2022-07-01T07:56:47;19.20;99.90
2967;DHT22;1493;51.496;7.210;2022-07-01T07:59:14;19.20;99.90
2967;DHT22;1493;51.496;7.210;2022-07-01T08:01:41;19.10;99.90
2967;DHT22;1493;51.496;7.210;2022-07-01T08:04:08;19.10;99.90
2967;DHT22;1493;51.496;7.210;2022-07-01T08:06:35;19.20;99.90
2967;DHT22;1493;51.496;7.210;2022-07-01T08:09:02;19.20;99.90
2967;DHT22;1493;51.496;7.210;2022-07-01T08:11:29;19.30;99.90
2967;DHT22;1493;51.496;7.210;2022-07-01T08:13:57;19.50;99.90
2967;DHT22;1493;51.496;7.210;2022-07-01T08:16:24;19.50;99.90
2967;DHT22;1493;51.496;7.210;2022-07-01T08:18:51;19.50;99.90
2967;DHT22;1493;51.496;7.210;2022-07-01T08:21:18;19.50;99.90
2967;DHT22;1493;51.496;7.210;2022-07-01T08:23:45;19.40;99.90
2967;DHT22;1493;51.496;7.210;2022-07-01T08:26:12;19.30;99.90
2967;DHT22;1493;51.496;7.210;2022-07-01T08:28:40;19.20;99.90
2967;DHT22;1493;51.496;7.210;2022-07-01T08:31:08;19.20;99.90
2967;DHT22;1493;51.496;7.210;2022-07-01T08:33:40;19.20;99.90
2967;DHT22;1493;51.496;7.210;2022-07-01T08:36:08;19.10;99.90
2967;DHT22;1493;51.496;7.210;2022-07-01T08:38:36;19.10;99.90
2967;DHT22;1493;51.496;7.210;2022-07-01T08:41:03;19.00;99.90
2967;DHT22;1493;51.496;7.210;2022-07-01T08:43:30;19.00;99.90
2967;DHT22;1493;51.496;7.210;2022-07-01T08:45:58;18.90;99.90
2967;DHT22;1493;51.496;7.210;2022-07-01T08:48:28;18.90;99.90
2967;DHT22;1493;51.496;7.210;2022-07-01T08:50:55;19.10;99.90
2967;DHT22;1493;51.496;7.210;2022-07-01T08:53:22;19.30;99.90
2967;DHT22;1493;51.496;7.210;2022-07-01T08:55:49;19.50;99.90
2967;DHT22;1493;51.496;7.210;2022-07-01T08:58:34;19.50;99.90
2967;DHT22;1493;51.496;7.210;2022-07-01T09:01:13;19.70;99.90
2967;DHT22;1493;51.496;7.210;2022-07-01T09:03:41;19.90;99.90
2967;DHT22;1493;51.496;7.210;2022-07-01T09:06:14;20.30;99.90
2967;DHT22;1493;51.496;7.210;2022-07-01T09:08:41;20.60;99.90
2967;DHT22;1493;51.496;7.210;2022-07-01T09:11:13;20.70;99.90
2967;DHT22;1493;51.496;7.210;2022-07-01T09:13:40;20.60;99.90
2967;DHT22;1493;51.496;7.210;2022-07-01T09:16:11;20.50;99.90
2967;DHT22;1493;51.496;7.210;2022-07-01T09:18:38;20.50;99.90
2967;DHT22;1493;51.496;7.210;2022-07-01T09:21:13;20.60;99.90
2967;DHT22;1493;51.496;7.210;2022-07-01T09:23:40;20.90;99.90
2967;DHT22;1493;51.496;7.210;2022-07-01T09:26:07;21.20;99.90
2967;DHT22;1493;51.496;7.210;2022-07-01T09:28:34;21.10;99.90
2967;DHT22;1493;51.496;7.210;2022-07-01T09:31:00;20.90;99.90
2967;DHT22;1493;51.496;7.210;2022-07-01T09:33:28;20.70;99.90
2967;DHT22;1493;51.496;7.210;2022-07-01T09:35:56;20.40;99.90
2967;DHT22;1493;51.496;7.210;2022-07-01T09:38:26;20.10;99.90
2967;DHT22;1493;51.496;7.210;2022-07-01T09:40:54;19.90;99.90
2967;DHT22;1493;51.496;7.210;2022-07-01T09:43:23;19.90;99.90
2967;DHT22;1493;51.496;7.210;2022-07-01T09:45:56;20.10;99.90
2967;DHT22;1493;51.496;7.210;2022-07-01T09:48:25;20.40;99.90
2967;DHT22;1493;51.496;7.210;2022-07-01T09:50:52;20.70;99.90
2967;DHT22;1493;51.496;7.210;2022-07-01T09:53:19;21.10;99.90
2967;DHT22;1493;51.496;7.210;2022-07-01T09:55:48;21.60;99.90
2967;DHT22;1493;51.496;7.210;2022-07-01T09:58:15;21.70;99.90
2967;DHT22;1493;51.496;7.210;2022-07-01T10:00:42;21.80;99.90
2967;DHT22;1493;51.496;7.210;2022-07-01T10:03:10;22.00;99.90
2967;DHT22;1493;51.496;7.210;2022-07-01T10:05:42;21.80;99.90
2967;DHT22;1493;51.496;7.210;2022-07-01T10:11:29;21.80;99.90
2967;DHT22;1493;51.496;7.210;2022-07-01T10:14:04;21.50;99.90
2967;DHT22;1493;51.496;7.210;2022-07-01T10:16:31;21.30;99.90
2967;DHT22;1493;51.496;7.210;2022-07-01T10:18:59;21.20;99.90
2967;DHT22;1493;51.496;7.210;2022-07-01T10:21:27;21.30;99.90
2967;DHT22;1493;51.496;7.210;2022-07-01T10:24:11;21.20;99.90
2967;DHT22;1493;51.496;7.210;2022-07-01T10:26:40;21.20;99.90
2967;DHT22;1493;51.496;7.210;2022-07-01T10:29:28;21.30;99.90
2967;DHT22;1493;51.496;7.210;2022-07-01T10:32:00;21.40;99.90
2967;DHT22;1493;51.496;7.210;2022-07-01T10:34:35;21.30;99.90
2967;DHT22;1493;51.496;7.210;2022-07-01T10:37:05;21.30;99.90
2967;DHT22;1493;51.496;7.210;2022-07-01T10:39:55;21.40;99.90
2967;DHT22;1493;51.496;7.210;2022-07-01T10:42:29;21.40;99.90
2967;DHT22;1493;51.496;7.210;2022-07-01T10:45:01;21.70;99.90
2967;DHT22;1493;51.496;7.210;2022-07-01T10:47:28;22.10;99.90
2967;DHT22;1493;51.496;7.210;2022-07-01T10:49:57;22.60;99.90
2967;DHT22;1493;51.496;7.210;2022-07-01T10:52:27;23.20;99.90
2967;DHT22;1493;51.496;7.210;2022-07-01T10:54:56;23.60;99.90
2967;DHT22;1493;51.496;7.210;2022-07-01T10:57:33;23.60;99.90
2967;DHT22;1493;51.496;7.210;2022-07-01T11:00:26;23.70;99.90
2967;DHT22;1493;51.496;7.210;2022-07-01T11:03:09;23.80;99.90
2967;DHT22;1493;51.496;7.210;2022-07-01T11:05:36;23.80;99.90
2967;DHT22;1493;51.496;7.210;2022-07-01T11:08:07;23.60;99.90
2967;DHT22;1493;51.496;7.210;2022-07-01T11:10:34;23.40;99.90
2967;DHT22;1493;51.496;7.210;2022-07-01T11:13:03;23.10;99.90
2967;DHT22;1493;51.496;7.210;2022-07-01T11:15:30;23.20;99.90
2967;DHT22;1493;51.496;7.210;2022-07-01T11:17:58;23.60;99.90
2967;DHT22;1493;51.496;7.210;2022-07-01T11:20:29;23.90;99.90
2967;DHT22;1493;51.496;7.210;2022-07-01T11:22:56;24.50;99.90
2967;DHT22;1493;51.496;7.210;2022-07-01T11:25:23;24.50;99.90
2967;DHT22;1493;51.496;7.210;2022-07-01T11:27:52;24.50;99.90
2967;DHT22;1493;51.496;7.210;2022-07-01T11:30:21;24.70;99.90
2967;DHT22;1493;51.496;7.210;2022-07-01T11:32:49;24.80;99.90
2967;DHT22;1493;51.496;7.210;2022-07-01T11:35:19;24.80;99.90
2967;DHT22;1493;51.496;7.210;2022-07-01T11:38:07;24.80;99.90
2967;DHT22;1493;51.496;7.210;2022-07-01T11:40:53;24.60;99.90
2967;DHT22;1493;51.496;7.210;2022-07-01T11:43:21;24.90;99.90
2967;DHT22;1493;51.496;7.210;2022-07-01T11:45:49;24.90;99.90
2967;DHT22;1493;51.496;7.210;2022-07-01T11:48:34;24.90;99.90
2967;DHT22;1493;51.496;7.210;2022-07-01T11:51:04;24.60;99.90
2967;DHT22;1493;51.496;7.210;2022-07-01T11:53:31;24.40;99.90
2967;DHT22;1493;51.496;7.210;2022-07-01T11:55:58;25.00;99.90
2967;DHT22;1493;51.496;7.210;2022-07-01T11:58:46;25.30;99.90
2967;DHT22;1493;51.496;7.210;2022-07-01T12:01:23;26.10;99.90
2967;DHT22;1493;51.496;7.210;2022-07-01T12:03:50;26.40;99.90
2967;DHT22;1493;51.496;7.210;2022-07-01T12:06:17;26.70;99.90
2967;DHT22;1493;51.496;7.210;2022-07-01T12:08:45;26.70;99.90
2967;DHT22;1493;51.496;7.210;2022-07-01T12:11:13;26.70;99.90
2967;DHT22;1493;51.496;7.210;2022-07-01T12:13:40;27.00;99.90
2967;DHT22;1493;51.496;7.210;2022-07-01T12:16:08;26.60;99.90
2967;DHT22;1493;51.496;7.210;2022-07-01T12:18:39;26.20;99.90
2967;DHT22;1493;51.496;7.210;2022-07-01T12:21:18;26.00;99.90
2967;DHT22;1493;51.496;7.210;2022-07-01T12:24:09;25.90;99.90
2967;DHT22;1493;51.496;7.210;2022-07-01T12:26:50;25.60;99.90
2967;DHT22;1493;51.496;7.210;2022-07-01T12:29:19;25.60;99.90
2967;DHT22;1493;51.496;7.210;2022-07-01T12:31:58;25.80;99.90
2967;DHT22;1493;51.496;7.210;2022-07-01T12:34:42;25.50;99.90
2967;DHT22;1493;51.496;7.210;2022-07-01T12:37:11;25.10;99.90
2967;DHT22;1493;51.496;7.210;2022-07-01T12:39:46;24.90;99.90
2967;DHT22;1493;51.496;7.210;2022-07-01T12:42:24;25.20;99.90
2967;DHT22;1493;51.496;7.210;2022-07-01T12:44:56;26.00;99.90
2967;DHT22;1493;51.496;7.210;2022-07-01T12:47:28;25.80;99.90
2967;DHT22;1493;51.496;7.210;2022-07-01T12:50:13;25.30;99.90
2967;DHT22;1493;51.496;7.210;2022-07-01T12:52:42;24.70;99.90
2967;DHT22;1493;51.496;7.210;2022-07-01T12:55:19;24.50;99.90
2967;DHT22;1493;51.496;7.210;2022-07-01T12:57:47;24.30;99.90
2967;DHT22;1493;51.496;7.210;2022-07-01T13:00:20;23.70;99.90
2967;DHT22;1493;51.496;7.210;2022-07-01T13:02:51;23.60;99.90
2967;DHT22;1493;51.496;7.210;2022-07-01T13:05:21;24.30;99.90
2967;DHT22;1493;51.496;7.210;2022-07-01T13:07:52;25.70;99.90
2967;DHT22;1493;51.496;7.210;2022-07-01T13:10:19;27.00;99.90
2967;DHT22;1493;51.496;7.210;2022-07-01T13:12:47;28.00;99.90
2967;DHT22;1493;51.496;7.210;2022-07-01T13:15:15;28.30;99.90
2967;DHT22;1493;51.496;7.210;2022-07-01T13:17:44;27.60;99.90
2967;DHT22;1493;51.496;7.210;2022-07-01T13:20:12;26.70;99.90
2967;DHT22;1493;51.496;7.210;2022-07-01T13:22:41;26.40;99.90
2967;DHT22;1493;51.496;7.210;2022-07-01T13:25:11;26.80;99.90
2967;DHT22;1493;51.496;7.210;2022-07-01T13:27:39;27.70;99.90
2967;DHT22;1493;51.496;7.210;2022-07-01T13:30:07;27.90;99.90
2967;DHT22;1493;51.496;7.210;2022-07-01T13:32:35;27.50;99.90
2967;DHT22;1493;51.496;7.210;2022-07-01T13:35:03;27.30;99.90
2967;DHT22;1493;51.496;7.210;2022-07-01T13:37:30;27.00;99.90
2967;DHT22;1493;51.496;7.210;2022-07-01T13:39:58;27.80;99.90
2967;DHT22;1493;51.496;7.210;2022-07-01T13:42:25;28.70;99.90
2967;DHT22;1493;51.496;7.210;2022-07-01T13:44:52;29.60;99.90
2967;DHT22;1493;51.496;7.210;2022-07-01T13:47:22;30.30;95.60
2967;DHT22;1493;51.496;7.210;2022-07-01T13:49:50;30.70;95.40
2967;DHT22;1493;51.496;7.210;2022-07-01T13:52:17;30.90;92.30
2967;DHT22;1493;51.496;7.210;2022-07-01T13:54:44;31.30;93.70
2967;DHT22;1493;51.496;7.210;2022-07-01T13:57:12;31.50;90.70
2967;DHT22;1493;51.496;7.210;2022-07-01T13:59:39;31.20;82.80
2967;DHT22;1493;51.496;7.210;2022-07-01T14:02:06;31.20;86.70
2967;DHT22;1493;51.496;7.210;2022-07-01T14:04:33;31.00;80.10
2967;DHT22;1493;51.496;7.210;2022-07-01T14:07:00;30.90;79.10
2967;DHT22;1493;51.496;7.210;2022-07-01T14:09:27;30.20;79.00
2967;DHT22;1493;51.496;7.210;2022-07-01T14:11:54;29.30;82.60
2967;DHT22;1493;51.496;7.210;2022-07-01T14:14:22;28.30;75.90
2967;DHT22;1493;51.496;7.210;2022-07-01T14:16:49;27.70;76.30
2967;DHT22;1493;51.496;7.210;2022-07-01T14:19:16;27.40;84.00
2967;DHT22;1493;51.496;7.210;2022-07-01T14:21:43;28.00;85.40
2967;DHT22;1493;51.496;7.210;2022-07-01T14:24:10;28.10;88.10
2967;DHT22;1493;51.496;7.210;2022-07-01T14:26:37;27.90;81.30
2967;DHT22;1493;51.496;7.210;2022-07-01T14:29:04;28.50;89.70
2967;DHT22;1493;51.496;7.210;2022-07-01T14:31:33;29.20;83.20
2967;DHT22;1493;51.496;7.210;2022-07-01T14:33:59;28.80;81.00
2967;DHT22;1493;51.496;7.210;2022-07-01T14:36:26;28.40;86.20
2967;DHT22;1493;51.496;7.210;2022-07-01T14:38:53;27.90;84.50
2967;DHT22;1493;51.496;7.210;2022-07-01T14:41:20;27.30;82.80
2967;DHT22;1493;51.496;7.210;2022-07-01T14:43:47;27.70;90.10
2967;DHT22;1493;51.496;7.210;2022-07-01T14:46:14;27.80;84.10
2967;DHT22;1493;51.496;7.210;2022-07-01T14:48:42;27.40;83.20
2967;DHT22;1493;51.496;7.210;2022-07-01T14:51:10;26.50;82.60
2967;DHT22;1493;51.496;7.210;2022-07-01T14:53:37;25.80;84.50
2967;DHT22;1493;51.496;7.210;2022-07-01T14:56:04;26.00;88.60
2967;DHT22;1493;51.496;7.210;2022-07-01T14:58:30;26.60;87.70
2967;DHT22;1493;51.496;7.210;2022-07-01T15:00:57;27.50;91.50
2967;DHT22;1493;51.496;7.210;2022-07-01T15:03:24;28.00;83.30
2967;DHT22;1493;51.496;7.210;2022-07-01T15:05:52;27.50;86.70
2967;DHT22;1493;51.496;7.210;2022-07-01T15:08:20;27.70;90.10
2967;DHT22;1493;51.496;7.210;2022-07-01T15:10:47;28.20;86.20
2967;DHT22;1493;51.496;7.210;2022-07-01T15:13:14;28.80;83.90
2967;DHT22;1493;51.496;7.210;2022-07-01T15:15:41;29.30;81.70
2967;DHT22;1493;51.496;7.210;2022-07-01T15:18:08;29.70;82.60
2967;DHT22;1493;51.496;7.210;2022-07-01T15:20:34;29.30;75.80
2967;DHT22;1493;51.496;7.210;2022-07-01T15:23:03;29.10;81.90
2967;DHT22;1493;51.496;7.210;2022-07-01T15:25:29;28.50;78.50
2967;DHT22;1493;51.496;7.210;2022-07-01T15:27:56;28.40;79.60
2967;DHT22;1493;51.496;7.210;2022-07-01T15:30:23;28.20;80.40
2967;DHT22;1493;51.496;7.210;2022-07-01T15:32:50;28.30;78.20
2967;DHT22;1493;51.496;7.210;2022-07-01T15:35:20;28.10;79.10
2967;DHT22;1493;51.496;7.210;2022-07-01T15:37:47;27.60;82.40
2967;DHT22;1493;51.496;7.210;2022-07-01T15:40:15;27.20;83.70
2967;DHT22;1493;51.496;7.210;2022-07-01T15:42:42;27.00;87.10
2967;DHT22;1493;51.496;7.210;2022-07-01T15:45:09;26.90;88.70
2967;DHT22;1493;51.496;7.210;2022-07-01T15:47:36;26.50;84.90
2967;DHT22;1493;51.496;7.210;2022-07-01T15:50:20;26.20;85.10
2967;DHT22;1493;51.496;7.210;2022-07-01T15:52:49;26.10;89.40
2967;DHT22;1493;51.496;7.210;2022-07-01T15:55:18;25.90;86.60
2967;DHT22;1493;51.496;7.210;2022-07-01T15:57:45;26.00;84.50
2967;DHT22;1493;51.496;7.210;2022-07-01T16:00:12;26.10;89.40
2967;DHT22;1493;51.496;7.210;2022-07-01T16:02:40;26.30;85.30
2967;DHT22;1493;51.496;7.210;2022-07-01T16:05:07;26.60;83.80
2967;DHT22;1493;51.496;7.210;2022-07-01T16:07:37;26.90;87.10
2967;DHT22;1493;51.496;7.210;2022-07-01T16:10:07;27.00;81.00
2967;DHT22;1493;51.496;7.210;2022-07-01T16:12:36;27.00;80.30
2967;DHT22;1493;51.496;7.210;2022-07-01T16:15:05;26.90;84.40